createdAt,value
2019-01-27T00:01:15.031Z,18.43
2019-01-27T00:03:44.370Z,18.27
2019-01-27T00:06:16.521Z,18.27
2019-01-27T00:08:45.626Z,18.93
2019-01-27T00:11:17.385Z,17.70
2019-01-27T00:13:46.383Z,17.07
2019-01-27T00:16:15.557Z,16.60
2019-01-27T00:18:47.656Z,15.90
2019-01-27T00:21:16.633Z,15.57
2019-01-27T00:23:45.876Z,16.93
2019-01-27T00:26:14.912Z,15.90
2019-01-27T00:28:43.988Z,15.10
2019-01-27T00:31:19.217Z,14.93
2019-01-27T00:33:54.589Z,15.20
2019-01-27T00:36:26.793Z,16.37
2019-01-27T00:38:55.935Z,17.00
2019-01-27T00:41:25.063Z,16.03
2019-01-27T00:43:54.180Z,16.53
2019-01-27T00:46:26.389Z,15.70
2019-01-27T00:48:58.197Z,16.47
2019-01-27T00:51:27.420Z,15.43
2019-01-27T00:53:56.475Z,15.57
2019-01-27T00:56:25.747Z,16.10
2019-01-27T00:58:59.783Z,17.07
2019-01-27T01:01:31.697Z,17.53
2019-01-27T01:04:05.389Z,16.73
2019-01-27T01:06:40.795Z,16.63
2019-01-27T01:09:11.660Z,18.50
2019-01-27T01:11:46.477Z,16.43
2019-01-27T01:14:18.177Z,17.77
2019-01-27T01:16:47.317Z,18.17
2019-01-27T01:19:16.734Z,19.13
2019-01-27T01:21:45.957Z,18.63
2019-01-27T01:24:20.412Z,19.53
2019-01-27T01:26:50.406Z,19.90
2019-01-27T01:29:19.580Z,20.47
2019-01-27T01:31:51.431Z,20.97
2019-01-27T01:34:20.792Z,20.67
2019-01-27T01:36:59.245Z,19.53
2019-01-27T01:39:28.524Z,19.10
2019-01-27T01:42:00.377Z,18.20
2019-01-27T01:44:35.845Z,18.10
2019-01-27T01:47:05.041Z,18.47
2019-01-27T01:49:34.041Z,18.80
2019-01-27T01:52:03.728Z,17.70
2019-01-27T01:54:32.557Z,16.43
2019-01-27T01:57:05.483Z,18.53
2019-01-27T01:59:37.360Z,17.00
2019-01-27T02:02:09.371Z,16.50
2019-01-27T02:04:42.489Z,16.97
2019-01-27T02:07:14.713Z,16.40
2019-01-27T02:09:46.715Z,16.77
2019-01-27T02:12:21.811Z,17.80
2019-01-27T02:14:54.416Z,16.93
2019-01-27T02:17:26.098Z,17.00
2019-01-27T02:19:56.368Z,16.07
2019-01-27T02:22:27.806Z,15.23
2019-01-27T02:24:57.168Z,16.07
2019-01-27T02:27:27.016Z,14.67
2019-01-27T02:29:57.306Z,15.97
2019-01-27T02:32:30.544Z,14.50
2019-01-27T02:35:02.505Z,13.60
2019-01-27T02:37:31.610Z,13.53
2019-01-27T02:40:01.693Z,13.30
2019-01-27T02:42:33.831Z,12.20
2019-01-27T02:45:05.918Z,12.63
2019-01-27T02:47:42.673Z,11.80
2019-01-27T02:50:09.590Z,11.23
2019-01-27T02:52:42.053Z,9.57
2019-01-27T02:55:11.458Z,10.27
2019-01-27T02:57:40.924Z,10.23
2019-01-27T03:00:20.205Z,9.43
2019-01-27T03:02:53.284Z,9.90
2019-01-27T03:05:53.263Z,10.47
2019-01-27T03:08:22.649Z,11.13
2019-01-27T03:10:55.867Z,9.97
2019-01-27T03:14:05.386Z,11.00
2019-01-27T03:16:35.200Z,12.47
2019-01-27T03:19:22.631Z,13.23
2019-01-27T03:21:55.677Z,14.10
2019-01-27T03:24:40.433Z,14.30
2019-01-27T03:27:18.893Z,13.67
2019-01-27T03:29:47.940Z,12.73
2019-01-27T03:32:17.058Z,12.90
2019-01-27T03:34:46.236Z,13.17
2019-01-27T03:37:18.349Z,13.03
2019-01-27T03:39:54.602Z,12.20
2019-01-27T03:42:22.182Z,11.17
2019-01-27T03:44:51.290Z,12.27
2019-01-27T03:47:21.696Z,12.30
2019-01-27T03:49:53.443Z,11.30
2019-01-27T03:52:25.584Z,11.40
2019-01-27T03:54:54.500Z,11.30
2019-01-27T03:57:23.488Z,12.27
2019-01-27T03:59:56.304Z,11.03
2019-01-27T04:02:25.273Z,10.77
2019-01-27T04:04:54.545Z,9.97
2019-01-27T04:07:23.405Z,9.70
2019-01-27T04:09:55.170Z,9.77
2019-01-27T04:12:27.778Z,9.43
2019-01-27T04:14:56.863Z,9.93
2019-01-27T04:17:25.977Z,9.20
2019-01-27T04:19:55.193Z,9.00
2019-01-27T04:22:27.235Z,8.83
2019-01-27T04:25:02.228Z,9.17
2019-01-27T04:27:31.246Z,8.57
2019-01-27T04:30:06.017Z,8.50
2019-01-27T04:32:35.276Z,9.10
2019-01-27T04:35:09.383Z,8.40
2019-01-27T04:37:42.378Z,8.10
2019-01-27T04:40:16.755Z,7.90
2019-01-27T04:42:45.875Z,8.43
2019-01-27T04:45:22.477Z,7.93
2019-01-27T04:47:51.577Z,7.67
2019-01-27T04:50:21.066Z,8.10
2019-01-27T04:52:52.988Z,8.33
2019-01-27T04:55:26.170Z,8.97
2019-01-27T04:57:55.440Z,8.47
2019-01-27T05:00:25.089Z,8.77
2019-01-27T05:03:02.921Z,8.27
2019-01-27T05:05:35.357Z,9.23
2019-01-27T05:08:04.758Z,8.90
2019-01-27T05:10:38.759Z,10.27
2019-01-27T05:13:07.939Z,9.40
2019-01-27T05:15:41.716Z,9.60
2019-01-27T05:18:16.848Z,8.53
2019-01-27T05:20:46.133Z,9.17
2019-01-27T05:23:15.119Z,8.40
2019-01-27T05:25:44.229Z,9.37
2019-01-27T05:28:13.335Z,8.33
2019-01-27T05:30:42.702Z,8.37
2019-01-27T05:33:11.848Z,7.93
2019-01-27T05:35:44.143Z,8.30
2019-01-27T05:38:13.345Z,8.87
2019-01-27T05:40:45.620Z,8.77
2019-01-27T05:43:14.712Z,8.43
2019-01-27T05:45:43.732Z,8.47
2019-01-27T05:48:12.542Z,8.93
2019-01-27T05:50:41.691Z,8.03
2019-01-27T05:53:13.606Z,9.20
2019-01-27T05:55:43.805Z,9.43
2019-01-27T05:58:18.668Z,9.47
2019-01-27T06:00:47.959Z,9.63
2019-01-27T06:03:17.180Z,9.00
2019-01-27T06:05:46.177Z,10.00
2019-01-27T06:08:20.563Z,9.57
2019-01-27T06:10:55.303Z,9.13
2019-01-27T06:13:24.393Z,8.57
2019-01-27T06:15:53.358Z,8.53
2019-01-27T06:18:25.434Z,8.50
2019-01-27T06:20:57.177Z,8.23
2019-01-27T06:23:26.000Z,8.60
2019-01-27T06:25:55.274Z,8.50
2019-01-27T06:28:24.356Z,8.37
2019-01-27T06:30:53.337Z,8.20
2019-01-27T06:33:30.221Z,7.47
2019-01-27T06:35:59.454Z,7.87
2019-01-27T06:38:28.383Z,7.33
2019-01-27T06:40:57.274Z,7.20
2019-01-27T06:43:27.258Z,8.03
2019-01-27T06:45:56.480Z,8.20
2019-01-27T06:48:31.440Z,7.57
2019-01-27T06:51:01.806Z,7.43
2019-01-27T06:53:34.513Z,7.87
2019-01-27T06:56:04.001Z,8.50
2019-01-27T06:58:53.685Z,8.73
2019-01-27T07:01:40.406Z,9.20
2019-01-27T07:04:14.961Z,9.50
2019-01-27T07:07:16.569Z,9.50
2019-01-27T07:10:16.554Z,8.80
2019-01-27T07:12:56.408Z,9.00
2019-01-27T07:15:50.808Z,9.40
2019-01-27T07:18:32.407Z,9.43
2019-01-27T07:21:21.447Z,7.93
2019-01-27T07:27:07.422Z,8.10
2019-01-27T07:30:43.346Z,8.07
2019-01-27T07:33:35.687Z,8.93
2019-01-27T07:39:59.652Z,7.83
2019-01-27T07:43:49.577Z,6.93
2019-01-27T07:46:33.269Z,7.80
2019-01-27T07:53:09.545Z,7.53
2019-01-27T07:56:03.368Z,7.27
2019-01-27T07:59:04.038Z,7.00
2019-01-27T08:02:09.710Z,6.77
2019-01-27T08:04:48.701Z,5.60
2019-01-27T08:07:39.491Z,5.53
2019-01-27T08:10:18.163Z,5.53
2019-01-27T08:13:18.563Z,5.07
2019-01-27T08:16:10.334Z,4.70
2019-01-27T08:19:13.372Z,4.30
2019-01-27T08:22:19.448Z,4.50
2019-01-27T08:25:07.508Z,4.57
2019-01-27T08:27:54.024Z,4.93
2019-01-27T08:30:32.643Z,5.90
2019-01-27T08:33:27.308Z,4.53
2019-01-27T08:36:08.997Z,4.57
2019-01-27T08:38:54.100Z,4.60
2019-01-27T08:41:48.041Z,4.90
2019-01-27T08:44:33.119Z,6.27
2019-01-27T08:47:03.786Z,5.97
2019-01-27T08:49:39.654Z,5.73
2019-01-27T08:52:08.948Z,5.20
2019-01-27T08:54:38.038Z,5.00
2019-01-27T08:57:08.625Z,5.00
2019-01-27T08:59:41.325Z,5.47
2019-01-27T09:02:27.676Z,5.67
2019-01-27T09:05:12.929Z,9.67
2019-01-27T09:08:03.924Z,8.67
2019-01-27T09:10:39.625Z,5.60
2019-01-27T09:13:30.968Z,5.70
2019-01-27T09:19:25.110Z,6.93
2019-01-27T09:22:39.842Z,4.77
2019-01-27T09:28:27.018Z,3.40
2019-01-27T09:31:20.706Z,2.47
2019-01-27T09:33:58.157Z,2.03
2019-01-27T09:36:58.302Z,2.13
2019-01-27T09:39:45.039Z,1.80
2019-01-27T09:42:34.727Z,1.50
2019-01-27T09:45:13.494Z,1.40
2019-01-27T09:47:53.708Z,1.67
2019-01-27T09:50:49.444Z,1.07
2019-01-27T09:53:23.752Z,1.10
2019-01-27T09:56:12.514Z,1.23
2019-01-27T09:58:48.227Z,1.30
2019-01-27T10:01:48.424Z,1.20
2019-01-27T10:04:43.616Z,1.07
2019-01-27T10:07:35.242Z,4.20
2019-01-27T10:10:14.800Z,1.37
2019-01-27T10:12:51.697Z,0.90
2019-01-27T10:15:35.197Z,1.33
2019-01-27T10:18:29.899Z,1.90
2019-01-27T10:21:11.432Z,1.40
2019-01-27T10:23:51.349Z,2.47
2019-01-27T10:26:38.098Z,1.23
2019-01-27T10:29:20.407Z,1.60
2019-01-27T10:32:26.588Z,1.60
2019-01-27T10:35:03.206Z,1.07
2019-01-27T10:37:51.873Z,0.90
2019-01-27T10:40:31.348Z,1.20
2019-01-27T10:43:06.855Z,1.00
2019-01-27T10:45:47.784Z,1.10
2019-01-27T10:48:35.425Z,1.10
2019-01-27T10:51:22.243Z,0.83
2019-01-27T10:54:16.859Z,0.90
2019-01-27T10:57:06.613Z,0.90
2019-01-27T11:00:04.328Z,0.93
2019-01-27T11:02:43.565Z,0.90
2019-01-27T11:05:40.188Z,0.70
2019-01-27T11:11:33.365Z,0.80
2019-01-27T11:14:17.160Z,0.90
2019-01-27T11:17:03.766Z,0.80
2019-01-27T11:19:55.090Z,0.60
2019-01-27T11:22:41.565Z,0.60
2019-01-27T11:25:21.045Z,0.70
2019-01-27T11:27:56.210Z,1.20
2019-01-27T11:33:43.654Z,1.27
2019-01-27T11:36:32.128Z,1.60
2019-01-27T11:39:20.101Z,2.67
2019-01-27T11:42:07.736Z,0.90
2019-01-27T11:45:11.452Z,3.33
2019-01-27T11:48:08.234Z,5.30
2019-01-27T11:50:45.129Z,1.40
2019-01-27T11:53:14.439Z,3.70
2019-01-27T11:55:43.430Z,1.33
2019-01-27T11:58:15.346Z,1.73
2019-01-27T12:05:49.967Z,1.60
2019-01-27T12:08:33.319Z,12.20
2019-01-27T12:11:15.494Z,1.20
2019-01-27T12:13:53.208Z,1.70
2019-01-27T12:16:49.801Z,1.37
2019-01-27T12:19:33.215Z,1.10
2019-01-27T12:35:56.888Z,1.10
2019-01-27T13:02:54.161Z,1.70
2019-01-27T13:08:35.968Z,1.20
2019-01-27T13:11:16.193Z,1.03
2019-01-27T13:13:50.345Z,1.00
2019-01-27T13:16:20.445Z,1.17
2019-01-27T13:19:05.393Z,1.10
2019-01-27T13:21:35.954Z,1.00
2019-01-27T13:24:12.240Z,1.47
2019-01-27T13:27:05.822Z,1.00
2019-01-27T13:29:42.061Z,2.33
2019-01-27T13:35:47.059Z,2.40
2019-01-27T13:38:18.817Z,2.00
2019-01-27T13:40:48.856Z,2.97
2019-01-27T13:43:27.409Z,1.63
2019-01-27T13:45:57.329Z,1.70
2019-01-27T13:48:30.696Z,2.10
2019-01-27T13:51:01.665Z,7.93
2019-01-27T13:53:35.626Z,3.17
2019-01-27T13:56:08.650Z,1.43
2019-01-27T13:58:39.944Z,10.60
2019-01-27T14:01:09.571Z,5.20
2019-01-27T14:03:42.589Z,3.77
2019-01-27T14:06:23.713Z,1.90
2019-01-27T14:08:56.257Z,1.97
2019-01-27T14:11:25.650Z,1.83
2019-01-27T14:13:54.571Z,1.20
2019-01-27T14:16:29.088Z,6.03
2019-01-27T14:19:00.897Z,1.60
2019-01-27T14:21:33.045Z,3.00
2019-01-27T14:24:02.136Z,1.80
2019-01-27T14:26:34.502Z,3.70
2019-01-27T14:29:03.558Z,8.10
2019-01-27T14:31:39.049Z,12.43
2019-01-27T14:34:08.306Z,6.73
2019-01-27T14:36:40.604Z,3.80
2019-01-27T14:39:27.235Z,31.57
2019-01-27T14:42:41.823Z,2.93
2019-01-27T14:48:57.064Z,3.97
2019-01-27T14:52:17.827Z,2.10
2019-01-27T14:59:31.107Z,1.70
2019-01-27T15:01:24.551Z,6.27
2019-01-27T15:04:01.059Z,1.40
2019-01-27T15:09:43.199Z,2.97
2019-01-27T15:13:13.076Z,1.80
2019-01-27T15:15:52.243Z,4.53
2019-01-27T15:16:04.786Z,12.77
2019-01-27T15:19:04.228Z,6.37
2019-01-27T15:21:48.762Z,3.13
2019-01-27T15:24:31.282Z,1.80
2019-01-27T15:27:19.378Z,2.70
2019-01-27T15:29:48.636Z,1.70
2019-01-27T15:32:18.145Z,2.43
2019-01-27T15:34:50.576Z,1.87
2019-01-27T15:37:37.611Z,1.70
2019-01-27T15:40:13.595Z,1.97
2019-01-27T15:42:47.321Z,3.33
2019-01-27T15:45:20.874Z,4.00
2019-01-27T15:48:10.411Z,1.50
2019-01-27T15:50:59.692Z,3.03
2019-01-27T16:05:08.263Z,4.37
2019-01-27T16:21:59.886Z,2.87
2019-01-27T16:24:38.151Z,2.73
2019-01-27T16:27:21.973Z,2.50
2019-01-27T16:29:56.392Z,2.10
2019-01-27T16:32:34.317Z,1.87
2019-01-27T16:35:07.140Z,4.90
2019-01-27T16:37:36.318Z,2.40
2019-01-27T16:40:31.891Z,3.13
2019-01-27T16:43:01.350Z,2.57
2019-01-27T16:45:31.000Z,4.53
2019-01-27T16:48:24.881Z,3.93
2019-01-27T16:50:55.769Z,4.43
2019-01-27T16:53:36.912Z,2.77
2019-01-27T16:56:06.842Z,3.67
2019-01-27T16:59:26.267Z,6.30
2019-01-27T17:02:12.506Z,3.33
2019-01-27T17:05:02.186Z,4.23
2019-01-27T17:08:08.020Z,1.90
2019-01-27T17:10:43.762Z,2.00
2019-01-27T17:13:19.328Z,2.43
2019-01-27T17:15:51.616Z,2.10
2019-01-27T17:18:24.041Z,2.50
2019-01-27T17:20:53.508Z,2.30
2019-01-27T17:23:40.990Z,2.90
2019-01-27T17:26:10.931Z,2.43
2019-01-27T17:28:46.363Z,2.53
2019-01-27T17:31:19.032Z,2.70
2019-01-27T17:34:08.504Z,2.40
2019-01-27T17:37:08.397Z,3.53
2019-01-27T17:40:05.221Z,2.60
2019-01-27T17:42:55.353Z,2.80
2019-01-27T17:45:44.195Z,4.03
2019-01-27T17:48:25.102Z,3.20
2019-01-27T17:51:18.817Z,5.17
2019-01-27T17:53:56.987Z,5.60
2019-01-27T17:56:27.496Z,3.70
2019-01-27T17:59:11.417Z,3.00
2019-01-27T18:01:57.392Z,2.77
2019-01-27T18:05:07.934Z,2.60
2019-01-27T18:07:53.522Z,2.10
2019-01-27T18:10:49.611Z,1.90
2019-01-27T18:13:56.390Z,2.00
2019-01-27T18:16:34.104Z,2.30
2019-01-27T18:19:03.613Z,2.10
2019-01-27T18:21:32.806Z,0.90
2019-01-27T18:24:05.794Z,0.80
2019-01-27T18:29:40.110Z,0.87
2019-01-27T18:32:11.611Z,0.70
2019-01-27T18:34:46.073Z,1.17
2019-01-27T18:37:15.817Z,3.63
2019-01-27T18:43:52.421Z,1.53
2019-01-27T18:46:45.629Z,1.70
2019-01-27T18:49:27.497Z,2.20
2019-01-27T18:52:00.826Z,0.70
2019-01-27T18:55:08.072Z,2.90
2019-01-27T18:57:49.904Z,1.77
2019-01-27T19:00:31.636Z,1.50
2019-01-27T19:03:28.802Z,2.87
2019-01-27T19:06:10.790Z,1.40
2019-01-27T19:08:52.910Z,1.47
2019-01-27T19:11:39.729Z,1.60
2019-01-27T19:14:16.688Z,1.70
2019-01-27T19:17:14.213Z,1.83
2019-01-27T19:19:56.985Z,1.90
2019-01-27T19:22:44.105Z,2.13
2019-01-27T19:25:29.397Z,2.80
2019-01-27T19:28:18.968Z,2.53
2019-01-27T19:31:03.039Z,2.67
2019-01-27T19:34:00.456Z,1.77
2019-01-27T19:36:54.822Z,2.10
2019-01-27T19:39:45.795Z,1.87
2019-01-27T19:42:35.296Z,2.57
2019-01-27T19:45:35.938Z,1.70
2019-01-27T19:48:24.400Z,1.50
2019-01-27T19:51:15.610Z,1.70
2019-01-27T19:54:11.809Z,1.70
2019-01-27T19:56:55.705Z,2.17
2019-01-27T19:59:44.655Z,2.03
2019-01-27T20:02:30.632Z,2.70
2019-01-27T20:05:28.451Z,2.63
2019-01-27T20:08:26.967Z,2.23
2019-01-27T20:11:24.648Z,2.60
2019-01-27T20:14:33.597Z,3.00
2019-01-27T20:17:22.690Z,2.37
2019-01-27T20:20:22.396Z,2.83
2019-01-27T20:26:54.510Z,5.67
2019-01-27T20:29:53.153Z,3.97
2019-01-27T20:33:13.480Z,4.90
2019-01-27T20:36:33.136Z,4.23
2019-01-27T20:39:24.073Z,4.93
2019-01-27T20:42:20.365Z,4.00
2019-01-27T20:45:28.349Z,3.50
2019-01-27T20:48:37.824Z,3.80
2019-01-27T20:51:38.561Z,2.83
2019-01-27T20:54:29.777Z,3.60
2019-01-27T20:57:14.519Z,3.07
2019-01-27T21:00:07.482Z,3.60
2019-01-27T21:03:05.185Z,4.20
2019-01-27T21:06:03.460Z,5.93
2019-01-27T21:08:51.716Z,4.47
2019-01-27T21:11:32.363Z,3.80
2019-01-27T21:14:22.993Z,4.97
2019-01-27T21:17:23.462Z,6.50
2019-01-27T21:19:56.753Z,6.60
2019-01-27T21:22:26.042Z,6.53
2019-01-27T21:25:00.956Z,3.60
2019-01-27T21:27:30.533Z,5.80
2019-01-27T21:29:59.883Z,6.23
2019-01-27T21:32:29.616Z,3.53
2019-01-27T21:34:59.341Z,3.33
2019-01-27T21:37:50.450Z,3.17
2019-01-27T21:40:23.731Z,3.83
2019-01-27T21:42:56.579Z,3.27
2019-01-27T21:45:26.466Z,4.07
2019-01-27T21:47:55.697Z,4.23
2019-01-27T21:50:27.891Z,4.80
2019-01-27T21:52:56.850Z,4.40
2019-01-27T21:55:29.097Z,4.00
2019-01-27T21:58:02.074Z,4.37
2019-01-27T22:00:36.992Z,4.37
2019-01-27T22:03:07.125Z,4.47
2019-01-27T22:05:36.170Z,4.40
2019-01-27T22:08:05.345Z,4.77
2019-01-27T22:10:34.425Z,5.60
2019-01-27T22:13:03.497Z,5.30
2019-01-27T22:15:32.508Z,4.53
2019-01-27T22:18:03.669Z,5.17
2019-01-27T22:21:15.101Z,5.00
2019-01-27T22:23:47.352Z,5.00
2019-01-27T22:26:19.682Z,5.20
2019-01-27T22:28:48.685Z,4.87
2019-01-27T22:31:19.379Z,5.33
2019-01-27T22:33:51.300Z,5.03
2019-01-27T22:36:23.424Z,4.67
2019-01-27T22:38:52.617Z,5.10
2019-01-27T22:41:22.873Z,5.10
2019-01-27T22:43:53.176Z,5.13
2019-01-27T22:46:28.578Z,4.70
2019-01-27T22:49:01.375Z,5.60
2019-01-27T22:51:31.058Z,4.90
2019-01-27T22:54:10.018Z,5.10
2019-01-27T22:56:42.622Z,5.23
2019-01-27T22:59:12.705Z,5.20
2019-01-27T23:01:52.985Z,5.00
2019-01-27T23:04:22.504Z,4.20
2019-01-27T23:06:51.696Z,4.10
2019-01-27T23:09:21.501Z,4.73
2019-01-27T23:11:57.274Z,4.60
2019-01-27T23:15:30.545Z,4.70
2019-01-27T23:17:23.606Z,4.37
2019-01-27T23:20:08.347Z,4.70
2019-01-27T23:22:59.686Z,4.60
2019-01-27T23:28:43.009Z,4.40
2019-01-27T23:31:15.193Z,5.20
2019-01-27T23:34:22.699Z,4.87
2019-01-27T23:36:56.632Z,4.53
2019-01-27T23:39:47.364Z,5.17
2019-01-27T23:42:40.780Z,5.53
2019-01-27T23:45:13.789Z,4.90
2019-01-27T23:51:02.648Z,5.07
2019-01-27T23:53:37.266Z,5.10
2019-01-27T23:56:07.076Z,5.63
2019-01-27T23:59:12.109Z,5.13
